Surface/Precipitation History
02/26/2017 04:08  to  2/27/2017 04:08
Change End Date:
Date/Time
(MST)
Sf
Temp Chem Water Layer Surface Precipitation
Sfc Pvt Sub Frz Factor Pct Dpth DpthThk IcePct Cond Salin FI Type Intens Accum Rate
02/27/2017 04:05 Ice Warning 19.9F - 31F 32F 30 0% - - 100% 0 mhos 84 - Yes - - -
02/27/2017 03:57 Ice Warning 20.1F - 31F 32F 15 0% - - 100% 0 mhos 84 - Yes - - -
02/27/2017 03:47 Ice Warning 20.3F - 31F 32F 15 0% - - 99% 0 mhos 85 - Yes - - -
02/27/2017 03:37 Ice Warning 20.1F - 31F 32F 15 0% - - 99% 0 mhos 85 - Yes - - -
02/27/2017 03:35 Ice Warning 20.3F - 31F 32F 15 0% - - 99% 0 mhos 85 - Yes - - -
02/27/2017 03:27 Ice Warning 21.0F - 31F 32F 30 0% - - 99% 0 mhos 82 - Yes - - -
02/27/2017 03:21 Ice Warning 21.0F - 31F 32F 30 0% - - 99% 0 mhos 82 - Yes - - -
02/27/2017 03:17 Ice Warning 21.0F - 31F 32F 30 0% - - 99% 0 mhos 82 - Yes - - -
02/27/2017 03:07 Ice Warning 20.8F - 31F 32F 30 0% - - 99% 0 mhos 83 - Yes - - -
02/27/2017 03:06 Ice Warning 20.8F - 31F 32F 30 0% - - 99% 0 mhos 83 - Yes - - -
02/27/2017 02:57 Ice Warning 20.7F - 31F 32F 20 0% - - 99% 0 mhos 84 - Yes - - -
02/27/2017 02:50 Ice Warning 20.7F - 31F 32F 15 0% - - 99% 0 mhos 83 - Yes - - -
02/27/2017 02:47 Ice Warning 20.7F - 31F 32F 20 0% - - 99% 0 mhos 84 - Yes - - -
02/27/2017 02:37 Ice Warning 20.5F - 31F 32F 15 0% - - 99% 0 mhos 84 - Yes - - -
02/27/2017 02:35 Ice Warning 20.5F - 31F 32F 15 0% - - 99% 0 mhos 85 - Yes - - -
Date/Time
(MST)
Sf
Temp Chem Water Layer Surface Precipitation
Sfc Pvt Sub Frz Factor Pct Dpth DpthThk IcePct Cond Salin FI Type Intens Accum Rate
02/27/2017 02:27 Ice Warning 20.5F - 31F 32F 15 0% - - 99% 0 mhos 85 - Yes - - -
02/27/2017 02:20 Ice Warning 20.3F - 31F 32F 30 0% - - 99% 0 mhos 85 - Yes - - -
02/27/2017 02:17 Ice Warning 20.3F - 31F 32F 25 0% - - 99% 0 mhos 85 - Yes - - -
02/27/2017 02:07 Ice Warning 20.3F - 31F 32F 35 0% - - 99% 0 mhos 84 - Yes - - -
02/27/2017 02:05 Ice Warning 20.3F - 31F 32F 35 0% - - 99% 0 mhos 84 - Yes - - -
02/27/2017 01:57 Ice Warning 20.7F - 31F 32F 35 0% - - 99% 0 mhos 83 - Yes - - -
02/27/2017 01:50 Ice Warning 21.2F - 31F 32F 25 0% - - 99% 0 mhos 81 - Yes - - -
02/27/2017 01:47 Ice Warning 21.0F - 31F 32F 20 0% - - 99% 0 mhos 82 - Yes - - -
02/27/2017 01:37 Ice Warning 21.2F - 31F 32F 15 0% - - 99% 0 mhos 82 - Yes - - -
02/27/2017 01:35 Ice Warning 21.2F - 31F 32F 15 0% - - 99% 0 mhos 82 - Yes - - -
02/27/2017 01:27 Ice Warning 21.4F - 31F 32F 20 0% - - 99% 0 mhos 81 - Yes - - -
02/27/2017 01:20 Ice Warning 21.4F - 31F 32F 20 0% - - 99% 0 mhos 81 - Yes - - -
02/27/2017 01:17 Ice Warning 21.4F - 31F 32F 15 0% - - 99% 0 mhos 81 - Yes - - -
02/27/2017 01:06 Ice Warning 21.4F - 31F 32F 20 0% - - 99% 0 mhos 84 - Yes - - -
02/27/2017 01:05 Ice Warning 21.4F - 31F 32F 20 0% - - 99% 0 mhos 83 - Yes - - -
Date/Time
(MST)
Sf
Temp Chem Water Layer Surface Precipitation
Sfc Pvt Sub Frz Factor Pct Dpth DpthThk IcePct Cond Salin FI Type Intens Accum Rate
02/27/2017 00:56 Ice Warning 21.4F - 31F 32F 15 0% - - 99% 0 mhos 83 - Yes - - -
02/27/2017 00:50 Ice Warning 21.4F - 31F 32F 15 0% - - 99% 0 mhos 81 - Yes - - -
02/27/2017 00:46 Ice Warning 21.4F - 31F 32F 15 0% - - 99% 0 mhos 82 - Yes - - -
02/27/2017 00:36 Ice Warning 21.4F - 31F 32F 15 0% - - 99% 0 mhos 81 - Yes - - -
02/27/2017 00:35 Ice Warning 21.4F - 31F 32F 15 0% - - 99% 0 mhos 81 - Yes - - -
02/27/2017 00:26 Ice Warning 21.4F - 31F 32F 15 0% - - 99% 0 mhos 83 - Yes - - -
02/27/2017 00:20 Ice Warning 21.2F - 31F 32F 15 0% - - 99% 0 mhos 84 - Yes - - -
02/27/2017 00:16 Ice Warning 21.2F - 31F 32F 15 0% - - 99% 0 mhos 84 - Yes - - -
02/27/2017 00:06 Ice Warning 21.2F - 31F 32F 15 0% - - 99% 0 mhos 84 - Yes - - -
02/27/2017 00:05 Ice Warning 21.2F - 31F 32F 15 0% - - 99% 0 mhos 83 - Yes - - -
02/26/2017 23:56 Ice Warning 21.2F - 31F 32F 15 0% - - 99% 0 mhos 82 - Yes - - -
02/26/2017 23:50 Ice Warning 21.0F - 31F 32F 15 0% - - 99% 0 mhos 83 - Yes - - -
02/26/2017 23:46 Ice Warning 21.0F - 31F 32F 15 0% - - 99% 0 mhos 83 - Yes - - -
02/26/2017 23:36 Ice Warning 20.8F - 31F 32F 15 0% - - 99% 0 mhos 84 - Yes - - -
02/26/2017 23:35 Ice Warning 20.8F - 31F 32F 20 0% - - 99% 0 mhos 83 - Yes - - -
Date/Time
(MST)
Sf
Temp Chem Water Layer Surface Precipitation
Sfc Pvt Sub Frz Factor Pct Dpth DpthThk IcePct Cond Salin FI Type Intens Accum Rate
02/26/2017 23:26 Ice Warning 20.7F - 31F 32F 15 0% - - 99% 0 mhos 84 - Yes - - -
02/26/2017 23:21 Ice Warning 20.7F - 31F 32F 15 0% - - 99% 0 mhos 84 - Yes - - -
02/26/2017 23:16 Ice Warning 20.7F - 31F 32F 15 0% - - 99% 0 mhos 84 - Yes - - -
02/26/2017 23:06 Ice Warning 21.0F - 31F 32F 15 0% - - 99% 0 mhos 83 - Yes - - -
02/26/2017 23:05 Ice Warning 21.0F - 31F 32F 15 0% - - 99% 0 mhos 83 - Yes - - -
02/26/2017 22:56 Ice Warning 21.4F - 31F 32F 15 0% - - 99% 0 mhos 81 - Yes - - -
02/26/2017 22:50 Ice Warning 21.4F - 31F 32F 15 0% - - 99% 0 mhos 81 - Yes - - -
02/26/2017 22:46 Ice Warning 21.4F - 31F 32F 20 0% - - 99% 0 mhos 82 - Yes - - -
02/26/2017 22:36 Ice Warning 21.4F - 31F 32F 25 0% - - 99% 0 mhos 81 - Yes - - -
02/26/2017 22:35 Ice Warning 21.4F - 31F 32F 25 0% - - 99% 0 mhos 81 - Yes - - -
02/26/2017 22:26 Ice Warning 21.4F - 31F 32F 25 0% - - 99% 0 mhos 83 - Yes - - -
02/26/2017 22:20 Ice Warning 21.4F - 31F 32F 25 0% - - 99% 0 mhos 83 - Yes - - -
02/26/2017 22:16 Ice Warning 21.4F - 32F 32F 25 0% - - 99% 0 mhos 83 - Yes - - -
02/26/2017 22:06 Ice Warning 21.4F - 32F 32F 15 0% - - 99% 0 mhos 83 - Yes - - -
02/26/2017 22:05 Ice Warning 21.4F - 32F 32F 15 0% - - 99% 0 mhos 83 - Yes - - -
Date/Time
(MST)
Sf
Temp Chem Water Layer Surface Precipitation
Sfc Pvt Sub Frz Factor Pct Dpth DpthThk IcePct Cond Salin FI Type Intens Accum Rate
02/26/2017 21:56 Ice Warning 21.4F - 32F 32F 20 0% - - 99% 0 mhos 82 - Yes - - -
02/26/2017 21:50 Ice Warning 21.4F - 32F 32F 65 0% - - 99% 0 mhos 81 - Yes - - -
02/26/2017 21:46 Ice Warning 21.4F - 32F 32F 60 0% - - 99% 0 mhos 81 - Yes - - -
02/26/2017 21:36 Ice Warning 21.4F - 32F 32F 20 0% - - 99% 0 mhos 81 - Yes - - -
02/26/2017 21:35 Ice Warning 21.4F - 32F 32F 20 0% - - 99% 0 mhos 82 - Yes - - -
02/26/2017 21:26 Ice Warning 21.2F - 32F 32F 15 0% - - 99% 0 mhos 84 - Yes - - -
02/26/2017 21:20 Ice Warning 21.2F - 32F 32F 20 0% - - 99% 0 mhos 84 - Yes - - -
02/26/2017 21:16 Ice Warning 21.4F - 32F 32F 25 0% - - 99% 0 mhos 83 - Yes - - -
02/26/2017 21:06 Ice Warning 21.4F - 32F 32F 20 0% - - 99% 0 mhos 83 - Yes - - -
02/26/2017 21:05 Ice Warning 21.4F - 32F 32F 20 0% - - 99% 0 mhos 83 - Yes - - -
02/26/2017 20:56 Ice Warning 21.4F - 32F 32F 20 0% - - 99% 0 mhos 82 - Yes - - -
02/26/2017 20:50 Ice Warning 21.4F - 32F 32F 20 0% - - 99% 0 mhos 82 - Yes - - -
02/26/2017 20:46 Ice Warning 21.4F - 32F 32F 20 0% - - 99% 0 mhos 82 - Yes - - -
02/26/2017 20:36 Ice Warning 21.4F - 32F 32F 35 0% - - 99% 0 mhos 82 - Yes - - -
02/26/2017 20:35 Ice Warning 21.4F - 32F 32F 35 0% - - 99% 0 mhos 83 - Yes - - -
Date/Time
(MST)
Sf
Temp Chem Water Layer Surface Precipitation
Sfc Pvt Sub Frz Factor Pct Dpth DpthThk IcePct Cond Salin FI Type Intens Accum Rate
02/26/2017 20:26 Ice Warning 21.4F - 32F 32F 25 0% - - 99% 0 mhos 83 - Yes - - -
02/26/2017 20:20 Ice Warning 21.4F - 32F 32F 25 0% - - 99% 0 mhos 82 - None None - -
02/26/2017 20:16 Ice Warning 21.4F - 32F 32F 30 0% - - 99% 0 mhos 82 - Yes - - -
02/26/2017 20:05 Ice Warning 21.6F - 32F 32F 40 0% - - 99% 0 mhos 82 - None None - -
02/26/2017 20:05 Ice Warning 21.6F - 32F 32F 40 0% - - 99% 0 mhos 82 - None None - -
02/26/2017 19:55 Ice Warning 21.7F - 32F 32F 55 0% - - 99% 0 mhos 80 - Yes - - -
02/26/2017 19:50 Ice Warning 21.7F - 32F 32F 60 0% - - 99% 0 mhos 79 - Yes - - -
02/26/2017 19:45 Ice Warning 21.9F - 32F 32F 40 0% - - 99% 0 mhos 80 - Yes - - -
02/26/2017 19:35 Ice Warning 22.3F - 32F 32F 70 0% - - 99% 0 mhos 77 - None None - -
02/26/2017 19:35 Ice Warning 22.3F - 32F 32F 70 0% - - 99% 0 mhos 77 - None None - -
02/26/2017 19:25 Ice Warning 22.3F - 32F 32F 60 0% - - 99% 0 mhos 77 - None None - -
02/26/2017 19:20 Ice Warning 22.3F - 32F 32F 95 0% - - 99% 0 mhos 76 - Yes - - -
02/26/2017 19:15 Ice Warning 22.5F - 32F 32F 95 0% - - 99% 0 mhos 74 - None None - -
02/26/2017 19:05 Ice Warning 22.6F - 32F 32F 70 0% - - 99% 0 mhos 76 - Yes - - -
02/26/2017 19:05 Ice Warning 22.6F - 32F 32F 70 0% - - 99% 0 mhos 76 - Yes - - -
Date/Time
(MST)
Sf
Temp Chem Water Layer Surface Precipitation
Sfc Pvt Sub Frz Factor Pct Dpth DpthThk IcePct Cond Salin FI Type Intens Accum Rate
02/26/2017 18:55 Ice Warning 23.0F - 32F 32F 55 0% - - 99% 0 mhos 75 - Yes - - -
02/26/2017 18:50 Ice Warning 23.0F - 31F 32F 60 0% - - 99% 0 mhos 75 - Yes - - -
02/26/2017 18:45 Ice Warning 23.2F - 32F 32F 60 0% - - 99% 0 mhos 74 - None None - -
02/26/2017 18:35 Ice Warning 23.5F - 32F 32F 55 0% - - 99% 0 mhos 72 - None None - -
02/26/2017 18:35 Ice Warning 23.5F - 32F 32F 55 0% - - 99% 0 mhos 72 - None None - -
02/26/2017 18:25 Ice Warning 23.5F - 31F 32F 60 0% - - 99% 0 mhos 71 - Yes - - -
02/26/2017 18:20 Ice Warning 23.5F - 31F 32F 60 0% - - 99% 0 mhos 69 - Yes - - -
02/26/2017 18:15 Ice Warning 23.5F - 32F 32F 55 0% - - 99% 0 mhos 68 - Yes - - -
02/26/2017 18:05 Ice Warning 24.1F - 31F 32F 55 0% - - 99% 0 mhos 64 - Yes - - -
02/26/2017 18:05 Ice Warning 24.1F - 31F 32F 55 0% - - 99% 0 mhos 64 - Yes - - -
02/26/2017 17:55 Ice Warning 24.4F - 31F 32F 65 0% - - 99% 0 mhos 62 - Yes - - -
02/26/2017 17:50 Ice Warning 24.6F - 31F 32F 35 0% - - 100% 0 mhos 58 - None None - -
02/26/2017 17:45 Ice Warning 24.8F - 31F 32F 35 0% - - 100% 0 mhos 57 - None None - -
02/26/2017 17:35 Ice Warning 25.3F - 31F 32F 30 0% - - 99% 0 mhos 56 - Yes - - -
02/26/2017 17:35 Ice Warning 25.3F - 31F 32F 30 0% - - 99% 0 mhos 56 - Yes - - -
Date/Time
(MST)
Sf
Temp Chem Water Layer Surface Precipitation
Sfc Pvt Sub Frz Factor Pct Dpth DpthThk IcePct Cond Salin FI Type Intens Accum Rate
02/26/2017 17:25 Ice Warning 25.7F - 31F 32F 35 0% - - 100% 0 mhos 53 - None None - -
02/26/2017 17:20 Ice Warning 25.7F - 31F 32F 35 0% - - 100% 0 mhos 52 - None None - -
02/26/2017 17:15 Ice Warning 26.1F - 31F 32F 85 0% - - 100% 0 mhos 48 - None None - -
02/26/2017 17:05 Ice Warning 26.8F - 31F 32F 95 0% - - 100% 0 mhos 45 - None None - -
02/26/2017 17:05 Ice Warning 26.8F - 31F 32F 95 0% - - 100% 0 mhos 45 - None None - -
02/26/2017 16:55 Ice Warning 27.3F - 31F 32F 45 0% - - 99% 0 mhos 43 - None None - -
02/26/2017 16:50 Ice Warning 27.9F - 31F 32F 60 0% - - 100% 0 mhos 39 - None None - -
02/26/2017 16:45 Ice Warning 28.4F - 31F 32F 85 0% - - 99% 0 mhos 37 - Yes - - -
02/26/2017 16:35 Ice Warning 29.3F - 31F 32F 95 0% - - 99% 0 mhos 33 - Yes - - -
02/26/2017 16:35 Ice Warning 29.3F - 31F 32F 95 0% - - 99% 0 mhos 33 - Yes - - -
02/26/2017 16:25 Ice Warning 30.0F - 31F 32F 95 0% - - 99% 0 mhos 31 - Yes - - -
02/26/2017 16:21 Ice Warning 30.2F - 31F 32F 95 0% - - 99% 0 mhos 30 - Yes - - -
02/26/2017 16:15 Ice Warning 30.2F - 31F 32F 95 0% - - 99% 0 mhos 34 - Yes - - -
02/26/2017 16:05 Ice Warning 30.4F - 31F 32F 95 0% - - 99% 0 mhos 37 - Yes - - -
02/26/2017 16:05 Ice Warning 30.4F - 31F 32F 95 0% - - 99% 0 mhos 37 - None None - -
Date/Time
(MST)
Sf
Temp Chem Water Layer Surface Precipitation
Sfc Pvt Sub Frz Factor Pct Dpth DpthThk IcePct Cond Salin FI Type Intens Accum Rate
02/26/2017 15:55 Ice Warning 30.4F - 31F 32F 95 0% - - 99% 0 mhos 42 - Yes - - -
02/26/2017 15:51 Ice Warning 30.4F - 31F 32F 95 0% - - 99% 0 mhos 47 - Yes - - -
02/26/2017 15:45 Ice Warning 30.6F - 31F 32F 95 0% - - 98% 1 mhos 70 - None None - -
02/26/2017 15:35 Ice Warning 30.4F - 31F 32F 95 1% - - 90% 3 mhos 342 - None None - -
02/26/2017 15:35 Ice Warning 30.4F - 31F 32F 95 1% - - 90% 3 mhos 342 - None None - -
02/26/2017 15:24 Ice Warning 30.4F - 31F 32F 95 1% - - 92% 2 mhos 280 - None None - -
02/26/2017 15:20 Ice Warning 31.5F - 31F 32F 45 0% - - 100% 0 mhos 4 - Yes - - -
02/26/2017 15:14 Ice Warning 31.5F - 31F 32F 35 0% - - 100% 0 mhos 4 - Yes - - -
02/26/2017 15:06 Ice Warning 31.5F - 31F 32F 20 0% - - 100% 0 mhos 4 - None None - -
02/26/2017 15:04 Ice Warning 31.5F - 31F 32F 20 0% - - 100% 0 mhos 4 - None None - -
02/26/2017 14:54 Ice Warning 31.5F - 31F 32F 25 0% - - 100% 0 mhos 3 - Yes - - -
02/26/2017 14:50 Ice Warning 31.3F - 31F 32F 20 0% - - 100% 0 mhos 3 - Yes - - -
02/26/2017 14:44 Ice Warning 31.5F - 31F 32F 40 0% - - 100% 0 mhos 3 - Yes - - -
02/26/2017 14:36 Ice Warning 31.6F - 31F 32F 20 0% - - 100% 0 mhos 3 - Yes - - -
02/26/2017 14:34 Ice Warning 31.6F - 31F 32F 15 0% - - 100% 0 mhos 3 - None None - -
Date/Time
(MST)
Sf
Temp Chem Water Layer Surface Precipitation
Sfc Pvt Sub Frz Factor Pct Dpth DpthThk IcePct Cond Salin FI Type Intens Accum Rate
02/26/2017 14:24 Ice Warning 31.8F - 31F 32F 30 0% - - 99% 0 mhos 3 - None None - -
02/26/2017 14:20 Chemically Wet 32.0F - 31F 32F 20 0% - - 57% 0 mhos 3 - None None - -
02/26/2017 14:14 Ice Warning 31.8F - 31F 32F 15 0% - - 99% 0 mhos 3 - Yes - - -
02/26/2017 14:05 Ice Warning 31.6F - 31F 32F 20 0% - - 100% 0 mhos 3 - Yes - - -
02/26/2017 14:04 Ice Warning 31.6F - 31F 32F 30 0% - - 100% 0 mhos 2 - Yes - - -
02/26/2017 13:54 Ice Warning 31.8F - 31F 32F 20 0% - - 100% 0 mhos 2 - Yes - - -
02/26/2017 13:50 Chemically Wet 32.0F - 31F 32F 15 0% - - 77% 0 mhos 2 - Yes - - -
02/26/2017 13:44 Wet 32.2F - 31F 32F 5 0% 0.10 in - 0% 0 mhos 1 - Yes - - -
02/26/2017 13:35 Wet 32.4F - 31F 32F 5 0% 0.00 in - 0% 0 mhos 1 - Yes - - -
02/26/2017 13:34 Wet 32.4F - 31F 32F 5 0% 0.00 in - 0% 0 mhos 1 - Yes - - -
02/26/2017 13:24 Wet 32.5F - 31F 32F 5 0% 0.30 in - 0% 0 mhos 1 - Yes - - -
02/26/2017 13:20 Wet 32.5F - 31F 32F 5 0% 0.00 in - 0% 0 mhos 1 - Yes - - -
02/26/2017 13:14 Wet 32.7F - 31F 32F 5 0% 0.00 in - 0% 0 mhos 2 - Yes - - -
02/26/2017 13:05 Wet 33.6F - 31F 32F 45 0% 0.00 in - 0% 1 mhos 100 - Yes - - -
02/26/2017 13:04 Wet 33.8F - 31F 32F 60 0% 0.00 in - 0% 1 mhos 106 - Yes - - -
Date/Time
(MST)
Sf
Temp Chem Water Layer Surface Precipitation
Sfc Pvt Sub Frz Factor Pct Dpth DpthThk IcePct Cond Salin FI Type Intens Accum Rate
02/26/2017 12:54 Wet 35.2F - 31F 32F 20 0% 0.00 in - 0% 1 mhos 133 - None None - -
02/26/2017 12:50 Wet 36.3F - 31F 32F 30 0% 0.00 in - 0% 1 mhos 125 - Yes - - -
02/26/2017 12:44 Wet 37.4F - 31F 32F 20 0% 0.00 in - 0% 1 mhos 121 - None None - -
02/26/2017 12:35 Wet 37.8F - 31F 32F 20 0% 0.00 in - 0% 1 mhos 136 - Yes - - -
02/26/2017 12:34 Wet 38.7F - 31F 32F 20 0% 0.00 in - 0% 2 mhos 143 - Yes - - -
02/26/2017 12:24 Wet 38.5F - 31F 32F 20 0% 0.00 in - 0% 1 mhos 115 - None None - -
02/26/2017 12:20 Wet 38.5F - 31F 32F 25 0% 0.00 in - 0% 1 mhos 112 - Yes - - -
02/26/2017 12:14 Wet 38.3F - 31F 32F 20 0% 0.00 in - 0% 1 mhos 108 - None None - -
02/26/2017 12:05 Wet 37.2F - 31F 32F 25 0% 0.00 in - 0% 1 mhos 93 - None None - -
02/26/2017 12:04 Wet 37.9F - 31F 32F 55 0% 0.00 in - 0% 1 mhos 63 - None None - -
02/26/2017 11:54 Wet 37.6F - 31F 32F 20 0% 0.00 in - 0% 1 mhos 132 - None None - -
02/26/2017 11:50 Wet 37.6F - 31F 32F 30 0% 0.00 in - 0% 1 mhos 120 - None None - -
02/26/2017 11:44 Wet 37.6F - 31F 32F 20 0% 0.00 in - 0% 1 mhos 115 - None None - -
02/26/2017 11:35 Wet 37.6F - 31F 32F 25 0% 0.00 in - 0% 1 mhos 98 - Yes - - -
02/26/2017 11:34 Wet 37.6F - 31F 32F 25 0% 0.00 in - 0% 1 mhos 94 - None None - -
Date/Time
(MST)
Sf
Temp Chem Water Layer Surface Precipitation
Sfc Pvt Sub Frz Factor Pct Dpth DpthThk IcePct Cond Salin FI Type Intens Accum Rate
02/26/2017 11:24 Wet 36.1F - 31F 32F 30 0% 0.00 in - 0% 1 mhos 92 - None None - -
02/26/2017 11:20 Wet 36.1F - 31F 32F 20 0% 0.00 in - 0% 1 mhos 86 - Yes - - -
02/26/2017 11:14 Wet 35.8F - 31F 32F 30 0% 0.00 in - 0% 1 mhos 57 - None None - -
02/26/2017 11:05 Wet 35.8F - 31F 32F 25 0% 0.00 in - 0% 1 mhos 102 - None None - -
02/26/2017 11:04 Wet 35.4F - 31F 32F 30 0% 0.00 in - 0% 1 mhos 106 - None None - -
02/26/2017 10:53 Wet 35.2F - 31F 32F 30 0% 0.00 in - 0% 1 mhos 80 - None None - -
02/26/2017 10:50 Wet 35.1F - 31F 32F 20 0% 0.00 in - 0% 1 mhos 62 - Yes - - -
02/26/2017 10:43 Wet 34.3F - 31F 32F 70 0% 0.00 in - 0% 1 mhos 72 - None None - -
02/26/2017 10:35 Wet 32.5F - 31F 32F 70 0% 0.00 in - 0% 1 mhos 55 - Yes - - -
02/26/2017 10:33 Wet 32.4F - 31F 32F 60 0% 0.00 in - 0% 1 mhos 61 - Yes - - -
02/26/2017 10:23 Wet 32.2F - 31F 32F 55 0% 0.10 in - 0% 0 mhos 6 - None None - -
02/26/2017 10:20 Chemically Wet 32.0F - 31F 32F 40 0% 0.10 in - 0% 0 mhos 6 - None None - -
02/26/2017 10:13 Ice Warning 31.8F - 31F 32F 20 0% - - 98% 0 mhos 7 - Yes - - -
02/26/2017 10:05 Ice Warning 31.6F - 31F 32F 15 0% - - 99% 0 mhos 6 - Yes - - -
02/26/2017 10:03 Ice Warning 31.6F - 31F 32F 30 0% - - 99% 0 mhos 6 - None None - -
Date/Time
(MST)
Sf
Temp Chem Water Layer Surface Precipitation
Sfc Pvt Sub Frz Factor Pct Dpth DpthThk IcePct Cond Salin FI Type Intens Accum Rate
02/26/2017 09:53 Ice Warning 31.5F - 31F 32F 5 0% - - 100% 0 mhos 2 - Yes - - -
02/26/2017 09:50 Ice Warning 31.3F - 31F 32F 5 0% - - 100% 0 mhos 2 - None None - -
02/26/2017 09:43 Ice Warning 30.6F - 31F 32F 5 0% - - 100% 0 mhos 1 - Yes - - -
02/26/2017 09:35 Ice Warning 30.6F - 31F 32F 5 0% - - 100% 0 mhos 1 - None None - -
02/26/2017 09:33 Ice Warning 30.6F - 31F 32F 5 0% - - 100% 0 mhos 1 - None None - -
02/26/2017 09:23 Ice Warning 29.8F - 31F 32F 5 0% - - 100% 0 mhos 1 - None None - -
02/26/2017 09:20 Ice Warning 29.8F - 31F 32F 5 0% - - 100% 0 mhos 1 - Yes - - -
02/26/2017 09:13 Ice Warning 29.7F - 31F 32F 5 0% - - 100% 0 mhos 1 - Yes - - -
02/26/2017 09:05 Ice Warning 28.6F - 31F 32F 5 0% - - 100% 0 mhos 1 - Yes - - -
02/26/2017 09:03 Ice Warning 28.2F - 31F 32F 5 0% - - 100% 0 mhos 1 - Yes - - -
02/26/2017 08:53 Ice Warning 27.7F - 31F 32F 5 0% - - 100% 0 mhos 1 - Yes - - -
02/26/2017 08:50 Ice Warning 27.5F - 31F 32F 5 0% - - 100% 0 mhos 1 - Yes - - -
02/26/2017 08:43 Ice Warning 27.1F - 31F 32F 5 0% - - 100% 0 mhos 0 - Yes - - -
02/26/2017 08:35 Ice Warning 26.8F - 31F 32F 5 0% - - 100% 0 mhos 0 - None None - -
02/26/2017 08:33 Ice Warning 26.8F - 32F 32F 5 0% - - 100% 0 mhos 0 - Yes - - -
Date/Time
(MST)
Sf
Temp Chem Water Layer Surface Precipitation
Sfc Pvt Sub Frz Factor Pct Dpth DpthThk IcePct Cond Salin FI Type Intens Accum Rate
02/26/2017 08:23 Ice Warning 26.1F - 32F 32F 5 0% - - 100% 0 mhos 0 - Yes - - -
02/26/2017 08:20 Ice Warning 25.9F - 32F 32F 5 0% - - 100% 0 mhos 0 - None None - -
02/26/2017 08:13 Ice Warning 25.7F - 32F 32F 5 0% - - 100% 0 mhos 0 - Yes - - -
02/26/2017 08:05 Ice Warning 25.3F - 32F 32F 5 0% - - 100% 0 mhos 0 - Yes - - -
02/26/2017 08:03 Ice Warning 25.2F - 32F 32F 5 0% - - 100% 0 mhos 0 - Yes - - -
02/26/2017 07:53 Ice Warning 24.8F - 32F 32F 5 0% - - 100% 0 mhos 0 - Yes - - -
02/26/2017 07:50 Ice Warning 24.6F - 32F 32F 5 0% - - 100% 0 mhos 0 - None None - -
02/26/2017 07:43 Ice Warning 24.3F - 32F 32F 5 0% - - 100% 0 mhos 0 - Yes - - -
02/26/2017 07:35 Ice Warning 24.1F - 32F 32F 5 0% - - 100% 0 mhos 0 - Yes - - -
02/26/2017 07:33 Ice Warning 24.1F - 32F 32F 5 0% - - 100% 0 mhos 0 - Yes - - -
02/26/2017 07:23 Ice Warning 23.7F - 32F 32F 5 0% - - 100% 0 mhos 0 - Yes - - -
02/26/2017 07:20 Ice Warning 23.7F - 32F 32F 5 0% - - 100% 0 mhos 0 - Yes - - -
02/26/2017 07:13 Ice Warning 23.5F - 32F 32F 5 0% - - 100% 0 mhos 0 - Yes - - -
02/26/2017 07:05 Ice Warning 23.5F - 32F 32F 5 0% - - 100% 0 mhos 0 - Yes - - -
02/26/2017 07:03 Ice Warning 23.5F - 32F 32F 5 0% - - 100% 0 mhos 0 - None None - -
Date/Time
(MST)
Sf
Temp Chem Water Layer Surface Precipitation
Sfc Pvt Sub Frz Factor Pct Dpth DpthThk IcePct Cond Salin FI Type Intens Accum Rate
02/26/2017 06:53 Ice Warning 23.5F - 32F 32F 5 0% - - 100% 0 mhos 0 - None None - -
02/26/2017 06:50 Ice Warning 23.5F - 32F 32F 5 0% - - 100% 0 mhos 0 - Yes - - -
02/26/2017 06:43 Ice Warning 23.5F - 32F 32F 5 0% - - 100% 0 mhos 0 - None None - -
02/26/2017 06:35 Ice Warning 23.5F - 32F 32F 5 0% - - 100% 0 mhos 0 - Yes - - -
02/26/2017 06:33 Ice Warning 23.5F - 32F 32F 5 0% - - 100% 0 mhos 0 - None None - -
02/26/2017 06:23 Ice Warning 23.7F - 32F 32F 5 0% - - 100% 0 mhos 0 - None None - -
02/26/2017 06:20 Ice Warning 23.7F - 32F 32F 5 0% - - 100% 0 mhos 0 - Yes - - -
02/26/2017 06:13 Ice Warning 23.7F - 32F 32F 5 0% - - 100% 0 mhos 0 - Yes - - -
02/26/2017 06:05 Ice Warning 23.7F - 32F 32F 5 0% - - 100% 0 mhos 0 - None None - -
02/26/2017 06:02 Ice Warning 23.7F - 32F 32F 5 0% - - 100% 0 mhos 0 - Yes - - -
02/26/2017 05:52 Ice Warning 23.9F - 32F 32F 5 0% - - 100% 0 mhos 0 - Yes - - -
02/26/2017 05:50 Ice Warning 23.9F - 32F 32F 5 0% - - 100% 0 mhos 0 - Yes - - -
02/26/2017 05:42 Ice Warning 23.9F - 32F 32F 5 0% - - 100% 0 mhos 0 - Yes - - -
02/26/2017 05:35 Ice Warning 23.9F - 32F 32F 5 0% - - 100% 0 mhos 0 - Yes - - -
02/26/2017 05:32 Ice Warning 23.9F - 32F 32F 5 0% - - 100% 0 mhos 0 - Yes - - -
Date/Time
(MST)
Sf
Temp Chem Water Layer Surface Precipitation
Sfc Pvt Sub Frz Factor Pct Dpth DpthThk IcePct Cond Salin FI Type Intens Accum Rate
02/26/2017 05:22 Ice Warning 23.7F - 32F 32F 5 0% - - 100% 0 mhos 0 - Yes - - -
02/26/2017 05:21 Ice Warning 23.7F - 32F 32F 5 0% - - 100% 0 mhos 0 - None None - -
02/26/2017 05:12 Ice Warning 23.9F - 32F 32F 5 0% - - 100% 0 mhos 0 - Yes - - -
02/26/2017 05:05 Ice Warning 23.9F - 32F 32F 5 0% - - 100% 0 mhos 0 - Yes - - -
02/26/2017 05:02 Ice Warning 23.9F - 32F 32F 5 0% - - 100% 0 mhos 0 - Yes - - -
02/26/2017 04:52 Ice Warning 24.1F - 32F 32F 5 0% - - 100% 0 mhos 0 - None None - -
02/26/2017 04:50 Ice Warning 24.1F - 32F 32F 5 0% - - 100% 0 mhos 0 - None None - -
02/26/2017 04:42 Ice Warning 24.1F - 32F 32F 5 0% - - 100% 0 mhos 0 - Yes - - -
02/26/2017 04:35 Dry 23.9F - 32F - - - - - - 0 mhos 0 - None None - -
02/26/2017 04:32 Ice Watch 23.9F - 32F - 5 - - - - 0 mhos 0 - None None - -
02/26/2017 04:22 Dry 23.7F - 32F - - - - - - 0 mhos 0 - None None - -
02/26/2017 04:21 Dry 23.7F - 32F - - - - - - 0 mhos 0 - None None - -
02/26/2017 04:12 Dry 23.5F - 32F - - - - - - 0 mhos 0 - None None - -
Change End Date:

Copyright © 1998-2015 Vaisala, Inc.
All Rights Reserved
Send comments about the data to:
SCAN Web ® is a registered trademark of Vaisala, Inc.
SCAN Web Version 6.0